JAL917 RJTT-ROAH
Flight info
| Callsign | JAL917 |
|---|---|
| Flight time | 2h 17m |
| Altitude | 40000 |
| Route | LAXAS Y56 TOHME Y54 KOHWA Y12 AYANO Y128 LAXEL Y52 TONAR Y525 IHEYA |
| Aircraft | A359/H-SDE2E3GHIJ3J4J5LM1ORWXY/LB1D1 |
Departure
| Time | 2026-04-14 13:46 |
|---|---|
| Airport | Tokyo Haneda International Airport (RJTT) |
Arrival
| Time | 2026-04-14 16:03 |
|---|---|
| Airport | Naha International Airport (ROAH) |
| Time | Latitude | Longitude | Altitude | Speed | Heading |
|---|---|---|---|---|---|
| 2026-04-14 13:15 | 35.55083 | 139.78129 | 36 ft | 0 kts | 27° |
| 2026-04-14 13:31 | 35.55072 | 139.78123 | 35 ft | 4 kts | 27° |
| 2026-04-14 13:32 | 35.55048 | 139.78107 | 35 ft | 4 kts | 27° |
| 2026-04-14 13:32 | 35.55024 | 139.78092 | 35 ft | 4 kts | 27° |
| 2026-04-14 13:32 | 35.55000 | 139.78077 | 36 ft | 4 kts | 27° |
| 2026-04-14 13:32 | 35.54980 | 139.78064 | 35 ft | 4 kts | 36° |
| 2026-04-14 13:33 | 35.54968 | 139.78052 | 35 ft | 4 kts | 83° |
| 2026-04-14 13:33 | 35.54971 | 139.78032 | 33 ft | 4 kts | 126° |
| 2026-04-14 13:33 | 35.54988 | 139.78009 | 33 ft | 4 kts | 144° |
| 2026-04-14 13:33 | 35.54996 | 139.78002 | 34 ft | 0 kts | 149° |
| 2026-04-14 13:35 | 35.54992 | 139.78005 | 33 ft | 2 kts | 150° |
| 2026-04-14 13:36 | 35.54967 | 139.78022 | 34 ft | 7 kts | 150° |
| 2026-04-14 13:36 | 35.54914 | 139.78059 | 37 ft | 11 kts | 150° |
| 2026-04-14 13:36 | 35.54833 | 139.78115 | 37 ft | 15 kts | 149° |
| 2026-04-14 13:36 | 35.54738 | 139.78185 | 37 ft | 17 kts | 149° |
| 2026-04-14 13:37 | 35.54635 | 139.78258 | 37 ft | 18 kts | 149° |
| 2026-04-14 13:37 | 35.54522 | 139.78340 | 37 ft | 16 kts | 149° |
| 2026-04-14 13:37 | 35.54435 | 139.78403 | 37 ft | 16 kts | 150° |
| 2026-04-14 13:37 | 35.54344 | 139.78466 | 37 ft | 10 kts | 150° |
| 2026-04-14 13:38 | 35.54297 | 139.78521 | 37 ft | 11 kts | 110° |
| 2026-04-14 13:38 | 35.54321 | 139.78616 | 37 ft | 14 kts | 60° |
| 2026-04-14 13:38 | 35.54377 | 139.78732 | 37 ft | 18 kts | 59° |
| 2026-04-14 13:38 | 35.54446 | 139.78878 | 37 ft | 22 kts | 60° |
| 2026-04-14 13:39 | 35.54521 | 139.79036 | 37 ft | 19 kts | 59° |
| 2026-04-14 13:39 | 35.54580 | 139.79159 | 37 ft | 16 kts | 59° |
| 2026-04-14 13:39 | 35.54629 | 139.79263 | 37 ft | 13 kts | 60° |
| 2026-04-14 13:39 | 35.54638 | 139.79361 | 37 ft | 13 kts | 121° |
| 2026-04-14 13:40 | 35.54555 | 139.79425 | 37 ft | 16 kts | 151° |
| 2026-04-14 13:40 | 35.54444 | 139.79502 | 37 ft | 20 kts | 150° |
| 2026-04-14 13:40 | 35.54310 | 139.79593 | 37 ft | 24 kts | 150° |
| 2026-04-14 13:40 | 35.54178 | 139.79687 | 37 ft | 17 kts | 149° |
| 2026-04-14 13:41 | 35.54064 | 139.79771 | 37 ft | 21 kts | 150° |
| 2026-04-14 13:41 | 35.53928 | 139.79868 | 37 ft | 23 kts | 150° |
| 2026-04-14 13:41 | 35.53795 | 139.79965 | 37 ft | 23 kts | 149° |
| 2026-04-14 13:41 | 35.53643 | 139.80071 | 38 ft | 26 kts | 150° |
| 2026-04-14 13:42 | 35.53483 | 139.80185 | 44 ft | 27 kts | 149° |
| 2026-04-14 13:42 | 35.53324 | 139.80298 | 53 ft | 26 kts | 150° |
| 2026-04-14 13:42 | 35.53170 | 139.80406 | 52 ft | 22 kts | 150° |
| 2026-04-14 13:42 | 35.53059 | 139.80486 | 59 ft | 12 kts | 149° |
| 2026-04-14 13:43 | 35.52984 | 139.80526 | 63 ft | 13 kts | 178° |
| 2026-04-14 13:43 | 35.52900 | 139.80460 | 58 ft | 17 kts | 223° |
| 2026-04-14 13:43 | 35.52803 | 139.80352 | 60 ft | 21 kts | 222° |
| 2026-04-14 13:43 | 35.52704 | 139.80239 | 58 ft | 18 kts | 223° |
| 2026-04-14 13:44 | 35.52611 | 139.80144 | 61 ft | 14 kts | 201° |
| 2026-04-14 13:44 | 35.52547 | 139.80179 | 61 ft | 9 kts | 132° |
| 2026-04-14 13:44 | 35.52498 | 139.80244 | 58 ft | 11 kts | 134° |
| 2026-04-14 13:44 | 35.52459 | 139.80295 | 61 ft | 8 kts | 131° |
| 2026-04-14 13:45 | 35.52433 | 139.80371 | 64 ft | 10 kts | 84° |
| 2026-04-14 13:45 | 35.52482 | 139.80440 | 63 ft | 13 kts | 42° |
| 2026-04-14 13:45 | 35.52707 | 139.80690 | 60 ft | 91 kts | 43° |
| 2026-04-14 13:45 | 35.53422 | 139.81490 | 163 ft | 175 kts | 42° |
| 2026-04-14 13:46 | 35.54364 | 139.82503 | 1264 ft | 185 kts | 42° |
| 2026-04-14 13:46 | 35.55400 | 139.83604 | 2189 ft | 209 kts | 44° |
| 2026-04-14 13:46 | 35.56241 | 139.85131 | 2870 ft | 227 kts | 71° |
| 2026-04-14 13:46 | 35.56351 | 139.87126 | 3536 ft | 246 kts | 104° |
| 2026-04-14 13:47 | 35.55703 | 139.89122 | 4362 ft | 258 kts | 116° |
| 2026-04-14 13:47 | 35.54959 | 139.91172 | 5317 ft | 268 kts | 113° |
| 2026-04-14 13:47 | 35.54017 | 139.93176 | 6394 ft | 272 kts | 130° |
| 2026-04-14 13:47 | 35.52489 | 139.94499 | 7662 ft | 271 kts | 158° |
| 2026-04-14 13:48 | 35.50667 | 139.94887 | 8974 ft | 271 kts | 178° |
| 2026-04-14 13:48 | 35.48751 | 139.94528 | 10103 ft | 280 kts | 193° |
| 2026-04-14 13:48 | 35.46829 | 139.93913 | 10800 ft | 302 kts | 196° |
| 2026-04-14 13:48 | 35.44878 | 139.92695 | 11294 ft | 330 kts | 217° |
| 2026-04-14 13:49 | 35.43203 | 139.90680 | 12110 ft | 343 kts | 227° |
| 2026-04-14 13:49 | 35.41593 | 139.88473 | 13150 ft | 349 kts | 228° |
| 2026-04-14 13:49 | 35.39963 | 139.86250 | 14190 ft | 353 kts | 228° |
| 2026-04-14 13:49 | 35.38298 | 139.84007 | 15161 ft | 356 kts | 228° |
| 2026-04-14 13:50 | 35.36618 | 139.81757 | 16116 ft | 360 kts | 229° |
| 2026-04-14 13:50 | 35.34910 | 139.79479 | 17074 ft | 364 kts | 229° |
| 2026-04-14 13:50 | 35.33184 | 139.77185 | 18000 ft | 368 kts | 229° |
| 2026-04-14 13:50 | 35.31410 | 139.74885 | 18857 ft | 373 kts | 227° |
| 2026-04-14 13:51 | 35.29474 | 139.72738 | 19691 ft | 378 kts | 224° |
| 2026-04-14 13:51 | 35.27464 | 139.70637 | 20531 ft | 382 kts | 224° |
| 2026-04-14 13:51 | 35.25431 | 139.68524 | 21386 ft | 385 kts | 225° |
| 2026-04-14 13:51 | 35.23381 | 139.66390 | 22244 ft | 389 kts | 225° |
| 2026-04-14 13:52 | 35.21313 | 139.64237 | 23105 ft | 393 kts | 225° |
| 2026-04-14 13:52 | 35.19219 | 139.62054 | 23907 ft | 397 kts | 226° |
| 2026-04-14 13:52 | 35.17131 | 139.59880 | 24640 ft | 399 kts | 226° |
| 2026-04-14 13:52 | 35.15013 | 139.57678 | 25417 ft | 401 kts | 226° |
| 2026-04-14 13:53 | 35.12884 | 139.55464 | 26193 ft | 402 kts | 226° |
| 2026-04-14 13:53 | 35.10754 | 139.53244 | 26963 ft | 403 kts | 226° |
| 2026-04-14 13:53 | 35.08799 | 139.50819 | 27695 ft | 399 kts | 236° |
| 2026-04-14 13:53 | 35.07361 | 139.47959 | 28430 ft | 395 kts | 249° |
| 2026-04-14 13:54 | 35.06522 | 139.44778 | 29164 ft | 394 kts | 258° |
| 2026-04-14 13:54 | 35.05966 | 139.41495 | 29841 ft | 397 kts | 260° |
| 2026-04-14 13:54 | 35.05436 | 139.38180 | 30444 ft | 400 kts | 259° |
| 2026-04-14 13:54 | 35.04893 | 139.34834 | 31018 ft | 402 kts | 260° |
| 2026-04-14 13:55 | 35.04342 | 139.31481 | 31605 ft | 403 kts | 260° |
| 2026-04-14 13:55 | 35.03784 | 139.28114 | 32159 ft | 405 kts | 260° |
| 2026-04-14 13:55 | 35.03221 | 139.24737 | 32701 ft | 407 kts | 260° |
| 2026-04-14 13:55 | 35.02663 | 139.21382 | 33200 ft | 409 kts | 260° |
| 2026-04-14 13:56 | 35.02093 | 139.17974 | 33677 ft | 411 kts | 260° |
| 2026-04-14 13:56 | 35.01517 | 139.14547 | 34136 ft | 413 kts | 260° |
| 2026-04-14 13:56 | 35.00936 | 139.11110 | 34587 ft | 412 kts | 260° |
| 2026-04-14 13:56 | 35.00359 | 139.07709 | 35245 ft | 406 kts | 261° |
| 2026-04-14 13:57 | 34.99789 | 139.04357 | 35957 ft | 400 kts | 261° |
| 2026-04-14 13:57 | 34.99231 | 139.01065 | 36705 ft | 393 kts | 261° |
| 2026-04-14 13:57 | 34.98819 | 138.97804 | 37346 ft | 387 kts | 266° |
| 2026-04-14 13:57 | 34.98586 | 138.94557 | 37970 ft | 382 kts | 267° |
| 2026-04-14 13:58 | 34.98396 | 138.91343 | 38577 ft | 377 kts | 267° |
| 2026-04-14 13:58 | 34.98228 | 138.88164 | 39065 ft | 373 kts | 268° |
| 2026-04-14 13:58 | 34.98069 | 138.85004 | 39390 ft | 373 kts | 268° |
| 2026-04-14 13:58 | 34.97912 | 138.81843 | 39646 ft | 374 kts | 267° |
| 2026-04-14 13:59 | 34.97751 | 138.78662 | 39876 ft | 377 kts | 267° |
| 2026-04-14 13:59 | 34.97586 | 138.75468 | 40043 ft | 378 kts | 267° |
| 2026-04-14 13:59 | 34.97419 | 138.72316 | 40071 ft | 377 kts | 267° |
| 2026-04-14 14:00 | 34.97078 | 138.65932 | 40068 ft | 377 kts | 267° |
| 2026-04-14 14:00 | 34.96732 | 138.59552 | 40070 ft | 377 kts | 267° |
| 2026-04-14 14:01 | 34.96383 | 138.53174 | 40062 ft | 377 kts | 267° |
| 2026-04-14 14:01 | 34.96030 | 138.46805 | 40059 ft | 376 kts | 267° |
| 2026-04-14 14:02 | 34.95676 | 138.40439 | 40059 ft | 376 kts | 267° |
| 2026-04-14 14:02 | 34.95317 | 138.34076 | 40057 ft | 376 kts | 267° |
| 2026-04-14 14:03 | 34.94956 | 138.27719 | 40056 ft | 376 kts | 267° |
| 2026-04-14 14:03 | 34.94595 | 138.21406 | 40052 ft | 376 kts | 267° |
| 2026-04-14 14:04 | 34.94226 | 138.15053 | 40051 ft | 376 kts | 266° |
| 2026-04-14 14:04 | 34.93852 | 138.08700 | 40049 ft | 375 kts | 267° |
| 2026-04-14 14:05 | 34.93480 | 138.02352 | 40054 ft | 375 kts | 266° |
| 2026-04-14 14:05 | 34.93104 | 137.96008 | 40049 ft | 375 kts | 267° |
| 2026-04-14 14:06 | 34.92722 | 137.89668 | 40052 ft | 375 kts | 267° |
| 2026-04-14 14:06 | 34.92340 | 137.83334 | 40051 ft | 375 kts | 266° |
| 2026-04-14 14:07 | 34.91955 | 137.76989 | 40049 ft | 374 kts | 266° |
| 2026-04-14 14:07 | 34.91549 | 137.70715 | 40045 ft | 374 kts | 265° |
| 2026-04-14 14:08 | 34.90422 | 137.64514 | 40041 ft | 377 kts | 256° |
| 2026-04-14 14:08 | 34.88691 | 137.58475 | 40041 ft | 378 kts | 255° |
| 2026-04-14 14:09 | 34.86869 | 137.52463 | 40034 ft | 379 kts | 254° |
| 2026-04-14 14:09 | 34.85038 | 137.46444 | 40034 ft | 379 kts | 254° |
| 2026-04-14 14:10 | 34.83279 | 137.40411 | 40032 ft | 378 kts | 255° |
| 2026-04-14 14:10 | 34.81569 | 137.34352 | 40029 ft | 378 kts | 255° |
| 2026-04-14 14:11 | 34.79863 | 137.28345 | 40023 ft | 378 kts | 255° |
| 2026-04-14 14:11 | 34.78128 | 137.22300 | 40022 ft | 378 kts | 255° |
| 2026-04-14 14:12 | 34.76389 | 137.16267 | 40021 ft | 378 kts | 255° |
| 2026-04-14 14:12 | 34.74647 | 137.10237 | 40020 ft | 378 kts | 255° |
| 2026-04-14 14:13 | 34.72901 | 137.04207 | 40019 ft | 378 kts | 255° |
| 2026-04-14 14:13 | 34.70733 | 136.98346 | 40018 ft | 385 kts | 246° |
| 2026-04-14 14:14 | 34.67385 | 136.93135 | 40022 ft | 400 kts | 234° |
| 2026-04-14 14:14 | 34.63038 | 136.88761 | 40007 ft | 409 kts | 228° |
| 2026-04-14 14:15 | 34.58480 | 136.84602 | 40012 ft | 411 kts | 227° |
| 2026-04-14 14:15 | 34.53906 | 136.80450 | 40013 ft | 410 kts | 228° |
| 2026-04-14 14:16 | 34.49379 | 136.76298 | 40014 ft | 410 kts | 228° |
| 2026-04-14 14:16 | 34.44836 | 136.72114 | 40013 ft | 410 kts | 228° |
| 2026-04-14 14:17 | 34.38022 | 136.65840 | 40012 ft | 410 kts | 228° |
| 2026-04-14 14:17 | 34.33471 | 136.61659 | 40012 ft | 411 kts | 228° |
| 2026-04-14 14:18 | 34.28934 | 136.57496 | 40014 ft | 412 kts | 228° |
| 2026-04-14 14:18 | 34.24405 | 136.53259 | 40015 ft | 412 kts | 228° |
| 2026-04-14 14:19 | 34.19883 | 136.48994 | 40016 ft | 412 kts | 228° |
| 2026-04-14 14:19 | 34.15350 | 136.44735 | 40017 ft | 412 kts | 228° |
| 2026-04-14 14:20 | 34.11574 | 136.41206 | 40018 ft | 413 kts | 228° |
| 2026-04-14 14:20 | 34.08353 | 136.38641 | 40013 ft | 424 kts | 221° |
| 2026-04-14 14:20 | 34.06614 | 136.37463 | 40011 ft | 426 kts | 220° |
| 2026-04-14 14:21 | 34.00506 | 136.33555 | 40012 ft | 428 kts | 219° |
| 2026-04-14 14:21 | 33.96102 | 136.30808 | 40012 ft | 428 kts | 219° |
| 2026-04-14 14:22 | 33.90809 | 136.27500 | 40008 ft | 428 kts | 219° |
| 2026-04-14 14:22 | 33.85522 | 136.24181 | 40008 ft | 429 kts | 219° |
| 2026-04-14 14:23 | 33.80225 | 136.20853 | 40006 ft | 429 kts | 219° |
| 2026-04-14 14:23 | 33.74926 | 136.17527 | 40004 ft | 429 kts | 219° |
| 2026-04-14 14:24 | 33.69629 | 136.14208 | 40001 ft | 430 kts | 219° |
| 2026-04-14 14:24 | 33.64319 | 136.10887 | 40003 ft | 430 kts | 219° |
| 2026-04-14 14:25 | 33.59045 | 136.07593 | 40001 ft | 430 kts | 218° |
| 2026-04-14 14:25 | 33.53730 | 136.04278 | 40002 ft | 430 kts | 218° |
| 2026-04-14 14:26 | 33.48409 | 136.00963 | 39994 ft | 431 kts | 218° |
| 2026-04-14 14:26 | 33.43089 | 135.97654 | 39995 ft | 431 kts | 218° |
| 2026-04-14 14:27 | 33.37761 | 135.94344 | 39995 ft | 431 kts | 218° |
| 2026-04-14 14:27 | 33.32456 | 135.91053 | 39994 ft | 432 kts | 218° |
| 2026-04-14 14:28 | 33.27110 | 135.87742 | 39987 ft | 432 kts | 218° |
| 2026-04-14 14:28 | 33.21761 | 135.84433 | 39993 ft | 433 kts | 218° |
| 2026-04-14 14:29 | 33.16410 | 135.81128 | 39994 ft | 433 kts | 218° |
| 2026-04-14 14:29 | 33.11054 | 135.77826 | 39984 ft | 432 kts | 218° |
| 2026-04-14 14:30 | 33.05731 | 135.74546 | 39992 ft | 433 kts | 218° |
| 2026-04-14 14:30 | 33.00368 | 135.71246 | 39989 ft | 434 kts | 217° |
| 2026-04-14 14:31 | 32.94999 | 135.67948 | 39985 ft | 434 kts | 217° |
| 2026-04-14 14:31 | 32.89630 | 135.64654 | 39983 ft | 434 kts | 217° |
| 2026-04-14 14:32 | 32.84286 | 135.61379 | 39985 ft | 434 kts | 217° |
| 2026-04-14 14:32 | 32.78909 | 135.58089 | 39979 ft | 434 kts | 217° |
| 2026-04-14 14:33 | 32.73533 | 135.54805 | 39981 ft | 434 kts | 217° |
| 2026-04-14 14:33 | 32.68149 | 135.51522 | 39976 ft | 434 kts | 217° |
| 2026-04-14 14:34 | 32.60077 | 135.46606 | 39977 ft | 434 kts | 217° |
| 2026-04-14 14:35 | 32.54730 | 135.43354 | 39978 ft | 434 kts | 217° |
| 2026-04-14 14:35 | 32.49352 | 135.40088 | 39970 ft | 434 kts | 217° |
| 2026-04-14 14:36 | 32.43972 | 135.36825 | 39971 ft | 434 kts | 217° |
| 2026-04-14 14:36 | 32.38583 | 135.33561 | 39969 ft | 434 kts | 217° |
| 2026-04-14 14:37 | 32.33199 | 135.30304 | 39962 ft | 434 kts | 217° |
| 2026-04-14 14:37 | 32.27816 | 135.27053 | 39972 ft | 434 kts | 216° |
| 2026-04-14 14:38 | 32.22467 | 135.23827 | 39963 ft | 434 kts | 216° |
| 2026-04-14 14:38 | 32.17080 | 135.20582 | 39962 ft | 434 kts | 216° |
| 2026-04-14 14:39 | 32.11784 | 135.17213 | 39965 ft | 427 kts | 221° |
| 2026-04-14 14:39 | 32.07340 | 135.12773 | 39964 ft | 412 kts | 235° |
| 2026-04-14 14:40 | 32.03747 | 135.07546 | 39961 ft | 409 kts | 238° |
| 2026-04-14 14:40 | 32.00301 | 135.02206 | 39960 ft | 409 kts | 238° |
| 2026-04-14 14:41 | 31.96860 | 134.96873 | 39961 ft | 409 kts | 238° |
| 2026-04-14 14:41 | 31.93418 | 134.91592 | 39961 ft | 409 kts | 238° |
| 2026-04-14 14:42 | 31.89939 | 134.86284 | 39958 ft | 409 kts | 238° |
| 2026-04-14 14:42 | 31.86454 | 134.80980 | 39954 ft | 409 kts | 238° |
| 2026-04-14 14:43 | 31.82968 | 134.75679 | 39957 ft | 409 kts | 238° |
| 2026-04-14 14:43 | 31.79477 | 134.70377 | 39955 ft | 410 kts | 238° |
| 2026-04-14 14:44 | 31.76001 | 134.65103 | 39955 ft | 410 kts | 238° |
| 2026-04-14 14:44 | 31.72501 | 134.59800 | 39952 ft | 410 kts | 238° |
| 2026-04-14 14:45 | 31.68999 | 134.54503 | 39951 ft | 410 kts | 237° |
| 2026-04-14 14:45 | 31.65493 | 134.49206 | 39951 ft | 410 kts | 237° |
| 2026-04-14 14:46 | 31.61983 | 134.43911 | 39948 ft | 411 kts | 237° |
| 2026-04-14 14:46 | 31.58473 | 134.38623 | 39948 ft | 411 kts | 237° |
| 2026-04-14 14:47 | 31.54978 | 134.33365 | 39949 ft | 411 kts | 237° |
| 2026-04-14 14:47 | 31.51458 | 134.28077 | 39944 ft | 411 kts | 237° |
| 2026-04-14 14:48 | 31.47935 | 134.22790 | 39946 ft | 411 kts | 237° |
| 2026-04-14 14:48 | 31.44409 | 134.17508 | 39943 ft | 412 kts | 237° |
| 2026-04-14 14:49 | 31.40878 | 134.12225 | 39943 ft | 412 kts | 237° |
| 2026-04-14 14:49 | 31.37365 | 134.06976 | 39941 ft | 412 kts | 237° |
| 2026-04-14 14:50 | 31.33831 | 134.01702 | 39940 ft | 412 kts | 237° |
| 2026-04-14 14:50 | 31.30287 | 133.96420 | 39941 ft | 412 kts | 237° |
| 2026-04-14 14:51 | 31.26740 | 133.91141 | 39941 ft | 412 kts | 237° |
| 2026-04-14 14:51 | 31.23184 | 133.85858 | 39937 ft | 412 kts | 237° |
| 2026-04-14 14:52 | 31.19656 | 133.80622 | 39940 ft | 413 kts | 237° |
| 2026-04-14 14:52 | 31.16097 | 133.75348 | 39929 ft | 413 kts | 237° |
| 2026-04-14 14:53 | 31.12535 | 133.70076 | 39929 ft | 413 kts | 237° |
| 2026-04-14 14:53 | 31.08974 | 133.64811 | 39928 ft | 413 kts | 237° |
| 2026-04-14 14:54 | 31.05424 | 133.59570 | 39941 ft | 413 kts | 237° |
| 2026-04-14 14:54 | 31.01850 | 133.54302 | 39932 ft | 414 kts | 237° |
| 2026-04-14 14:55 | 30.98283 | 133.49047 | 39925 ft | 414 kts | 237° |
| 2026-04-14 14:55 | 30.94708 | 133.43786 | 39922 ft | 414 kts | 237° |
| 2026-04-14 14:56 | 30.89334 | 133.35892 | 39917 ft | 414 kts | 236° |
| 2026-04-14 14:56 | 30.85775 | 133.30672 | 39920 ft | 414 kts | 236° |
| 2026-04-14 14:57 | 30.82183 | 133.25413 | 39917 ft | 414 kts | 236° |
| 2026-04-14 14:57 | 30.78591 | 133.20159 | 39917 ft | 414 kts | 236° |
| 2026-04-14 14:58 | 30.74997 | 133.14911 | 39918 ft | 414 kts | 236° |
| 2026-04-14 14:58 | 30.71408 | 133.09677 | 39913 ft | 414 kts | 236° |
| 2026-04-14 14:59 | 30.67813 | 133.04440 | 39912 ft | 414 kts | 236° |
| 2026-04-14 14:59 | 30.64240 | 132.99243 | 39912 ft | 414 kts | 236° |
| 2026-04-14 15:00 | 30.60646 | 132.94021 | 39908 ft | 414 kts | 236° |
| 2026-04-14 15:00 | 30.57043 | 132.88795 | 39906 ft | 414 kts | 236° |
| 2026-04-14 15:01 | 30.53437 | 132.83568 | 39906 ft | 414 kts | 236° |
| 2026-04-14 15:01 | 30.49855 | 132.78385 | 39904 ft | 414 kts | 236° |
| 2026-04-14 15:02 | 30.46241 | 132.73162 | 39904 ft | 415 kts | 236° |
| 2026-04-14 15:02 | 30.42624 | 132.67943 | 39902 ft | 415 kts | 236° |
| 2026-04-14 15:03 | 30.39002 | 132.62722 | 39899 ft | 416 kts | 236° |
| 2026-04-14 15:03 | 30.35370 | 132.57494 | 39889 ft | 416 kts | 236° |
| 2026-04-14 15:04 | 30.31739 | 132.52274 | 39903 ft | 416 kts | 236° |
| 2026-04-14 15:04 | 30.28126 | 132.47088 | 39910 ft | 416 kts | 236° |
| 2026-04-14 15:05 | 30.24485 | 132.41867 | 39896 ft | 417 kts | 235° |
| 2026-04-14 15:05 | 30.20838 | 132.36644 | 39887 ft | 418 kts | 235° |
| 2026-04-14 15:06 | 30.17183 | 132.31418 | 39899 ft | 418 kts | 235° |
| 2026-04-14 15:06 | 30.13518 | 132.26184 | 39881 ft | 418 kts | 235° |
| 2026-04-14 15:07 | 30.09853 | 132.20957 | 39895 ft | 419 kts | 235° |
| 2026-04-14 15:07 | 30.06801 | 132.16609 | 39893 ft | 419 kts | 235° |
| 2026-04-14 15:08 | 30.02526 | 132.10527 | 39891 ft | 419 kts | 235° |
| 2026-04-14 15:08 | 29.99466 | 132.06179 | 39893 ft | 419 kts | 235° |
| 2026-04-14 15:09 | 29.95786 | 132.00958 | 39896 ft | 420 kts | 235° |
| 2026-04-14 15:09 | 29.92100 | 131.95733 | 39893 ft | 420 kts | 235° |
| 2026-04-14 15:10 | 29.88407 | 131.90506 | 39895 ft | 420 kts | 235° |
| 2026-04-14 15:10 | 29.84713 | 131.85283 | 39895 ft | 420 kts | 235° |
| 2026-04-14 15:11 | 29.81016 | 131.80069 | 39896 ft | 420 kts | 234° |
| 2026-04-14 15:11 | 29.77244 | 131.74918 | 39894 ft | 421 kts | 233° |
| 2026-04-14 15:12 | 29.73430 | 131.69802 | 39894 ft | 421 kts | 233° |
| 2026-04-14 15:12 | 29.69620 | 131.64681 | 39896 ft | 421 kts | 233° |
| 2026-04-14 15:13 | 29.65840 | 131.59585 | 39899 ft | 421 kts | 233° |
| 2026-04-14 15:13 | 29.62034 | 131.54454 | 39898 ft | 422 kts | 233° |
| 2026-04-14 15:14 | 29.58223 | 131.49322 | 39897 ft | 422 kts | 233° |
| 2026-04-14 15:14 | 29.54413 | 131.44199 | 39898 ft | 422 kts | 233° |
| 2026-04-14 15:15 | 29.50594 | 131.39070 | 39900 ft | 422 kts | 233° |
| 2026-04-14 15:15 | 29.46775 | 131.33948 | 39900 ft | 422 kts | 233° |
| 2026-04-14 15:16 | 29.42951 | 131.28827 | 39902 ft | 423 kts | 233° |
| 2026-04-14 15:16 | 29.39119 | 131.23701 | 39900 ft | 423 kts | 233° |
| 2026-04-14 15:17 | 29.35308 | 131.18610 | 39902 ft | 423 kts | 233° |
| 2026-04-14 15:17 | 29.31470 | 131.13488 | 39906 ft | 424 kts | 233° |
| 2026-04-14 15:18 | 29.27625 | 131.08365 | 39905 ft | 424 kts | 233° |
| 2026-04-14 15:18 | 29.23779 | 131.03246 | 39907 ft | 424 kts | 233° |
| 2026-04-14 15:19 | 29.19930 | 130.98130 | 39906 ft | 424 kts | 233° |
| 2026-04-14 15:19 | 29.16082 | 130.93021 | 39906 ft | 424 kts | 233° |
| 2026-04-14 15:20 | 29.12222 | 130.87901 | 39911 ft | 424 kts | 233° |
| 2026-04-14 15:20 | 29.08390 | 130.82827 | 39911 ft | 424 kts | 233° |
| 2026-04-14 15:21 | 29.04527 | 130.77717 | 39909 ft | 424 kts | 233° |
| 2026-04-14 15:21 | 29.00658 | 130.72605 | 39912 ft | 424 kts | 233° |
| 2026-04-14 15:22 | 28.96811 | 130.67530 | 39915 ft | 425 kts | 233° |
| 2026-04-14 15:22 | 28.92945 | 130.62435 | 39912 ft | 425 kts | 233° |
| 2026-04-14 15:23 | 28.89067 | 130.57333 | 39916 ft | 425 kts | 233° |
| 2026-04-14 15:23 | 28.85189 | 130.52235 | 39915 ft | 425 kts | 233° |
| 2026-04-14 15:24 | 28.81304 | 130.47134 | 39913 ft | 425 kts | 233° |
| 2026-04-14 15:24 | 28.77421 | 130.42042 | 39921 ft | 425 kts | 233° |
| 2026-04-14 15:25 | 28.73536 | 130.36954 | 39922 ft | 425 kts | 232° |
| 2026-04-14 15:25 | 28.69670 | 130.31898 | 39918 ft | 425 kts | 232° |
| 2026-04-14 15:26 | 28.65776 | 130.26810 | 39928 ft | 426 kts | 232° |
| 2026-04-14 15:26 | 28.61880 | 130.21728 | 39926 ft | 426 kts | 232° |
| 2026-04-14 15:27 | 28.57986 | 130.16653 | 39922 ft | 426 kts | 232° |
| 2026-04-14 15:27 | 28.54087 | 130.11578 | 39917 ft | 426 kts | 232° |
| 2026-04-14 15:28 | 28.50185 | 130.06506 | 39913 ft | 426 kts | 232° |
| 2026-04-14 15:28 | 28.46299 | 130.01459 | 39917 ft | 426 kts | 232° |
| 2026-04-14 15:29 | 28.42388 | 129.96388 | 39905 ft | 427 kts | 232° |
| 2026-04-14 15:29 | 28.38466 | 129.91307 | 39907 ft | 427 kts | 232° |
| 2026-04-14 15:30 | 28.34547 | 129.86237 | 39910 ft | 427 kts | 232° |
| 2026-04-14 15:30 | 28.30650 | 129.81202 | 39909 ft | 427 kts | 232° |
| 2026-04-14 15:31 | 28.26718 | 129.76128 | 39914 ft | 427 kts | 232° |
| 2026-04-14 15:31 | 28.22782 | 129.71055 | 39918 ft | 428 kts | 232° |
| 2026-04-14 15:32 | 28.18849 | 129.65992 | 39922 ft | 428 kts | 232° |
| 2026-04-14 15:32 | 28.14937 | 129.60961 | 39923 ft | 428 kts | 232° |
| 2026-04-14 15:33 | 28.10989 | 129.55891 | 39927 ft | 428 kts | 232° |
| 2026-04-14 15:33 | 28.07041 | 129.50825 | 39926 ft | 429 kts | 232° |
| 2026-04-14 15:34 | 28.03091 | 129.45764 | 39930 ft | 429 kts | 232° |
| 2026-04-14 15:34 | 27.99163 | 129.40738 | 39934 ft | 429 kts | 232° |
| 2026-04-14 15:35 | 27.95205 | 129.35681 | 39933 ft | 429 kts | 232° |
| 2026-04-14 15:35 | 27.91245 | 129.30625 | 39931 ft | 429 kts | 232° |
| 2026-04-14 15:36 | 27.87510 | 129.25862 | 39931 ft | 429 kts | 231° |
| 2026-04-14 15:36 | 27.83540 | 129.20806 | 39926 ft | 430 kts | 231° |
| 2026-04-14 15:37 | 27.79566 | 129.15750 | 39940 ft | 430 kts | 231° |
| 2026-04-14 15:37 | 27.75588 | 129.10698 | 39926 ft | 430 kts | 231° |
| 2026-04-14 15:38 | 27.71630 | 129.05677 | 39927 ft | 431 kts | 231° |
| 2026-04-14 15:38 | 27.67643 | 129.00625 | 39936 ft | 431 kts | 231° |
| 2026-04-14 15:39 | 27.63652 | 128.95577 | 39929 ft | 431 kts | 231° |
| 2026-04-14 15:39 | 27.59658 | 128.90529 | 39926 ft | 431 kts | 231° |
| 2026-04-14 15:40 | 27.55658 | 128.85480 | 39918 ft | 432 kts | 231° |
| 2026-04-14 15:40 | 27.51653 | 128.80431 | 39914 ft | 432 kts | 231° |
| 2026-04-14 15:41 | 27.47684 | 128.75435 | 39705 ft | 429 kts | 231° |
| 2026-04-14 15:41 | 27.45684 | 128.72918 | 39481 ft | 431 kts | 231° |
| 2026-04-14 15:41 | 27.43743 | 128.70350 | 39257 ft | 430 kts | 236° |
| 2026-04-14 15:42 | 27.42083 | 128.67562 | 38883 ft | 426 kts | 239° |
| 2026-04-14 15:42 | 27.40524 | 128.64732 | 38185 ft | 425 kts | 240° |
| 2026-04-14 15:42 | 27.39005 | 128.61872 | 37419 ft | 425 kts | 241° |
| 2026-04-14 15:42 | 27.37512 | 128.59012 | 36691 ft | 424 kts | 241° |
| 2026-04-14 15:43 | 27.36021 | 128.56145 | 35928 ft | 425 kts | 242° |
| 2026-04-14 15:43 | 27.34525 | 128.53272 | 35155 ft | 426 kts | 241° |
| 2026-04-14 15:43 | 27.33016 | 128.50386 | 34338 ft | 428 kts | 241° |
| 2026-04-14 15:43 | 27.31492 | 128.47483 | 33345 ft | 433 kts | 241° |
| 2026-04-14 15:44 | 27.29947 | 128.44551 | 32341 ft | 437 kts | 242° |
| 2026-04-14 15:44 | 27.28388 | 128.41598 | 31321 ft | 441 kts | 242° |
| 2026-04-14 15:44 | 27.26815 | 128.38623 | 30250 ft | 445 kts | 242° |
| 2026-04-14 15:44 | 27.25223 | 128.35615 | 29075 ft | 450 kts | 242° |
| 2026-04-14 15:45 | 27.23628 | 128.32602 | 28192 ft | 446 kts | 242° |
| 2026-04-14 15:45 | 27.22049 | 128.29623 | 27345 ft | 442 kts | 242° |
| 2026-04-14 15:45 | 27.20482 | 128.26671 | 26538 ft | 438 kts | 242° |
| 2026-04-14 15:45 | 27.18929 | 128.23744 | 25715 ft | 434 kts | 242° |
| 2026-04-14 15:46 | 27.17388 | 128.20840 | 24907 ft | 431 kts | 242° |
| 2026-04-14 15:46 | 27.15858 | 128.17959 | 24082 ft | 428 kts | 242° |
| 2026-04-14 15:46 | 27.14338 | 128.15097 | 23224 ft | 425 kts | 242° |
| 2026-04-14 15:46 | 27.12847 | 128.12292 | 22356 ft | 421 kts | 242° |
| 2026-04-14 15:47 | 27.11356 | 128.09494 | 21537 ft | 415 kts | 242° |
| 2026-04-14 15:47 | 27.09882 | 128.06727 | 20723 ft | 410 kts | 242° |
| 2026-04-14 15:47 | 27.08432 | 128.04002 | 19918 ft | 405 kts | 242° |
| 2026-04-14 15:47 | 27.06997 | 128.01306 | 19097 ft | 401 kts | 242° |
| 2026-04-14 15:48 | 27.05569 | 127.98627 | 18279 ft | 398 kts | 242° |
| 2026-04-14 15:48 | 27.04154 | 127.95972 | 17359 ft | 395 kts | 242° |
| 2026-04-14 15:48 | 27.02747 | 127.93342 | 16514 ft | 390 kts | 241° |
| 2026-04-14 15:48 | 27.01121 | 127.90910 | 15658 ft | 391 kts | 230° |
| 2026-04-14 15:49 | 26.98973 | 127.89032 | 14836 ft | 394 kts | 214° |
| 2026-04-14 15:49 | 26.96571 | 127.87620 | 14372 ft | 378 kts | 211° |
| 2026-04-14 15:49 | 26.94320 | 127.86373 | 13612 ft | 348 kts | 211° |
| 2026-04-14 15:49 | 26.92190 | 127.85183 | 12370 ft | 338 kts | 211° |
| 2026-04-14 15:50 | 26.90122 | 127.84016 | 11723 ft | 320 kts | 211° |
| 2026-04-14 15:50 | 26.88255 | 127.82968 | 11467 ft | 288 kts | 212° |
| 2026-04-14 15:50 | 26.86531 | 127.81996 | 11336 ft | 276 kts | 212° |
| 2026-04-14 15:50 | 26.84820 | 127.81016 | 11227 ft | 273 kts | 212° |
| 2026-04-14 15:51 | 26.83162 | 127.80073 | 11095 ft | 261 kts | 212° |
| 2026-04-14 15:51 | 26.81572 | 127.79171 | 10969 ft | 252 kts | 212° |
| 2026-04-14 15:51 | 26.80011 | 127.78282 | 10704 ft | 251 kts | 212° |
| 2026-04-14 15:51 | 26.78453 | 127.77393 | 10333 ft | 252 kts | 212° |
| 2026-04-14 15:52 | 26.76887 | 127.76501 | 9973 ft | 253 kts | 212° |
| 2026-04-14 15:52 | 26.75316 | 127.75608 | 9583 ft | 254 kts | 212° |
| 2026-04-14 15:52 | 26.73740 | 127.74713 | 9178 ft | 254 kts | 212° |
| 2026-04-14 15:52 | 26.72172 | 127.73823 | 8844 ft | 252 kts | 212° |
| 2026-04-14 15:53 | 26.70614 | 127.72941 | 8528 ft | 250 kts | 212° |
| 2026-04-14 15:53 | 26.69089 | 127.72077 | 8207 ft | 248 kts | 211° |
| 2026-04-14 15:53 | 26.67557 | 127.71210 | 7879 ft | 245 kts | 211° |
| 2026-04-14 15:53 | 26.66038 | 127.70356 | 7564 ft | 243 kts | 211° |
| 2026-04-14 15:54 | 26.63048 | 127.68661 | 6947 ft | 239 kts | 211° |
| 2026-04-14 15:54 | 26.61570 | 127.67823 | 6648 ft | 237 kts | 211° |
| 2026-04-14 15:54 | 26.60102 | 127.66991 | 6326 ft | 236 kts | 210° |
| 2026-04-14 15:55 | 26.58640 | 127.66163 | 6023 ft | 235 kts | 210° |
| 2026-04-14 15:55 | 26.57185 | 127.65341 | 5703 ft | 234 kts | 210° |
| 2026-04-14 15:55 | 26.56228 | 127.64801 | 5489 ft | 233 kts | 210° |
| 2026-04-14 15:55 | 26.54784 | 127.63985 | 5175 ft | 232 kts | 210° |
| 2026-04-14 15:56 | 26.53349 | 127.63176 | 4881 ft | 230 kts | 210° |
| 2026-04-14 15:56 | 26.51935 | 127.62365 | 4574 ft | 227 kts | 212° |
| 2026-04-14 15:56 | 26.50208 | 127.61088 | 4174 ft | 226 kts | 206° |
| 2026-04-14 15:56 | 26.49172 | 127.60822 | 3984 ft | 229 kts | 186° |
| 2026-04-14 15:57 | 26.47596 | 127.61128 | 3704 ft | 231 kts | 168° |
| 2026-04-14 15:57 | 26.46024 | 127.61494 | 3416 ft | 230 kts | 174° |
| 2026-04-14 15:57 | 26.44469 | 127.61654 | 3176 ft | 223 kts | 180° |
| 2026-04-14 15:57 | 26.42972 | 127.61742 | 3140 ft | 208 kts | 180° |
| 2026-04-14 15:58 | 26.41550 | 127.61831 | 3132 ft | 201 kts | 180° |
| 2026-04-14 15:58 | 26.40187 | 127.61923 | 3118 ft | 194 kts | 180° |
| 2026-04-14 15:58 | 26.38840 | 127.62011 | 3117 ft | 193 kts | 180° |
| 2026-04-14 15:58 | 26.37501 | 127.62096 | 3103 ft | 193 kts | 180° |
| 2026-04-14 15:59 | 26.36162 | 127.62182 | 3058 ft | 193 kts | 180° |
| 2026-04-14 15:59 | 26.34836 | 127.62267 | 2836 ft | 188 kts | 180° |
| 2026-04-14 15:59 | 26.33537 | 127.62350 | 2578 ft | 185 kts | 180° |
| 2026-04-14 15:59 | 26.32264 | 127.62431 | 2328 ft | 182 kts | 180° |
| 2026-04-14 16:00 | 26.31018 | 127.62512 | 2093 ft | 177 kts | 180° |
| 2026-04-14 16:00 | 26.29828 | 127.62588 | 1849 ft | 165 kts | 180° |
| 2026-04-14 16:00 | 26.28721 | 127.62659 | 1650 ft | 153 kts | 181° |
| 2026-04-14 16:00 | 26.27704 | 127.62723 | 1441 ft | 144 kts | 181° |
| 2026-04-14 16:01 | 26.26728 | 127.62785 | 1263 ft | 137 kts | 180° |
| 2026-04-14 16:01 | 26.25797 | 127.62845 | 1083 ft | 131 kts | 180° |
| 2026-04-14 16:01 | 26.24904 | 127.62902 | 923 ft | 126 kts | 180° |
| 2026-04-14 16:01 | 26.24040 | 127.62957 | 774 ft | 124 kts | 179° |
| 2026-04-14 16:02 | 26.23183 | 127.63011 | 626 ft | 123 kts | 178° |
| 2026-04-14 16:02 | 26.22331 | 127.63078 | 462 ft | 122 kts | 175° |
| 2026-04-14 16:02 | 26.21489 | 127.63159 | 312 ft | 121 kts | 176° |
| 2026-04-14 16:02 | 26.20657 | 127.63217 | 168 ft | 121 kts | 177° |
| 2026-04-14 16:03 | 26.19819 | 127.63271 | 47 ft | 120 kts | 179° |
| 2026-04-14 16:03 | 26.19075 | 127.63302 | 33 ft | 79 kts | 178° |
| 2026-04-14 16:03 | 26.18694 | 127.63320 | 34 ft | 32 kts | 176° |
| 2026-04-14 16:03 | 26.18536 | 127.63353 | 35 ft | 22 kts | 159° |
| 2026-04-14 16:04 | 26.18431 | 127.63408 | 36 ft | 14 kts | 147° |
| 2026-04-14 16:04 | 26.18375 | 127.63458 | 35 ft | 9 kts | 124° |
| 2026-04-14 16:04 | 26.18399 | 127.63512 | 35 ft | 10 kts | 23° |
| 2026-04-14 16:04 | 26.18484 | 127.63517 | 35 ft | 15 kts | 0° |
| 2026-04-14 16:05 | 26.18603 | 127.63513 | 35 ft | 17 kts | 356° |
| 2026-04-14 16:05 | 26.18733 | 127.63508 | 35 ft | 19 kts | 358° |
| 2026-04-14 16:05 | 26.18882 | 127.63501 | 35 ft | 24 kts | 357° |
| 2026-04-14 16:05 | 26.19052 | 127.63491 | 35 ft | 22 kts | 357° |
| 2026-04-14 16:06 | 26.19223 | 127.63484 | 35 ft | 26 kts | 358° |
| 2026-04-14 16:06 | 26.19385 | 127.63477 | 35 ft | 24 kts | 357° |
| 2026-04-14 16:06 | 26.19564 | 127.63468 | 35 ft | 25 kts | 358° |
| 2026-04-14 16:06 | 26.19716 | 127.63461 | 35 ft | 19 kts | 358° |
| 2026-04-14 16:07 | 26.19867 | 127.63455 | 35 ft | 24 kts | 358° |
| 2026-04-14 16:07 | 26.20011 | 127.63448 | 35 ft | 16 kts | 357° |
| 2026-04-14 16:07 | 26.20131 | 127.63442 | 35 ft | 13 kts | 357° |
| 2026-04-14 16:07 | 26.20202 | 127.63463 | 35 ft | 12 kts | 51° |
| 2026-04-14 16:08 | 26.20218 | 127.63570 | 35 ft | 17 kts | 86° |
| 2026-04-14 16:08 | 26.20225 | 127.63717 | 35 ft | 21 kts | 87° |
| 2026-04-14 16:08 | 26.20232 | 127.63899 | 35 ft | 26 kts | 87° |
| 2026-04-14 16:08 | 26.20239 | 127.64098 | 35 ft | 19 kts | 88° |
| 2026-04-14 16:09 | 26.20244 | 127.64238 | 35 ft | 15 kts | 87° |
| 2026-04-14 16:09 | 26.20278 | 127.64313 | 35 ft | 12 kts | 27° |
| 2026-04-14 16:09 | 26.20377 | 127.64317 | 35 ft | 17 kts | 358° |
| 2026-04-14 16:09 | 26.20507 | 127.64311 | 35 ft | 20 kts | 360° |
| 2026-04-14 16:10 | 26.20658 | 127.64335 | 35 ft | 21 kts | 12° |
| 2026-04-14 16:10 | 26.20782 | 127.64366 | 35 ft | 18 kts | 13° |
| 2026-04-14 16:10 | 26.20898 | 127.64415 | 34 ft | 20 kts | 36° |
| 2026-04-14 16:10 | 26.20956 | 127.64532 | 33 ft | 11 kts | 73° |
| 2026-04-14 16:11 | 26.20977 | 127.64625 | 34 ft | 8 kts | 82° |
| 2026-04-14 16:11 | 26.20966 | 127.64704 | 34 ft | 12 kts | 124° |
| 2026-04-14 16:11 | 26.20923 | 127.64737 | 34 ft | 6 kts | 149° |
| 2026-04-14 16:11 | 26.20885 | 127.64772 | 34 ft | 6 kts | 135° |
| 2026-04-14 16:12 | 26.20858 | 127.64806 | 35 ft | 5 kts | 130° |
| 2026-04-14 16:12 | 26.20837 | 127.64832 | 35 ft | 4 kts | 132° |
| 2026-04-14 16:12 | 26.20830 | 127.64841 | 35 ft | 0 kts | 132° |
| 2026-04-14 16:12 | 26.20826 | 127.64846 | 35 ft | 0 kts | 131° |